Dorothea — WDC4584 — position and weather

sailwx.info

Track history (hours):
 
Tides and Currents Weather Stations Pressure Air Temp Water Temp Dewpoint Dewpoint Depression Visibility Wind Speed Wind Dir Waves Ship Positions

Dorothea

Owner: Dorothea Corp., Seattle, WA. More information available from US FCC via Universal Licensing System and Coast Guard Vessel Documentation Center.

Last reported at 2016-May-11 17:34 UTC. Time now 2016-Sep-26 03:42 UTC.
Position N 47°40' W 122°23'.
Warning: this ship's position is months out of date.

Date/timePositionNaut miles runAvg speedWind from/ knotsBaromVisibWave heightAir tempDewpointWater temp
2016-May-11 17:34N 47°40' W 122°23'0 0.0
2016-May-09 14:05N 47°40' W 122°23'0 0.0
2016-May-09 13:33N 47°40' W 122°23'0 0.0
2016-May-09 12:33N 47°40' W 122°23'0 0.0
2016-May-09 11:33N 47°40' W 122°23'0 0.0
2016-May-09 10:33N 47°40' W 122°23'0 0.0
2016-May-09 09:33N 47°40' W 122°23'0 0.0
2016-May-09 08:33N 47°40' W 122°23'0 0.0
2016-May-09 07:33N 47°40' W 122°23'0 0.0
2016-May-09 06:33N 47°40' W 122°23'0 0.0
2016-May-09 05:33N 47°40' W 122°23'0 0.0
2016-May-09 04:33N 47°40' W 122°23'0 0.0
2016-May-09 03:34N 47°40' W 122°23'0 0.0
2016-May-09 02:33N 47°40' W 122°23'0 0.0
2016-May-09 01:33N 47°40' W 122°23'0 0.0
2016-May-09 00:33N 47°40' W 122°23'0 0.0
2016-May-08 23:33N 47°40' W 122°23'0 0.0
2016-May-08 22:33N 47°40' W 122°23'0 0.0
2016-May-08 21:33N 47°40' W 122°23'0 0.0
2016-May-08 20:33N 47°40' W 122°23'0 0.0
2016-May-08 19:33N 47°40' W 122°23'0 0.0
2016-May-08 18:33N 47°40' W 122°23'0 0.0
2016-May-08 17:33N 47°40' W 122°23'0 0.0
2016-May-08 16:33N 47°40' W 122°23'0 0.0
2016-May-08 15:33N 47°40' W 122°23'0 0.0
2016-May-08 14:33N 47°40' W 122°23'0 0.0
2016-May-08 13:33N 47°40' W 122°23'0 0.0
2016-May-08 12:33N 47°40' W 122°23'0 0.0
2016-May-08 11:33N 47°40' W 122°23'0 0.0
2016-May-08 10:33N 47°40' W 122°23'0 0.0
2016-May-08 09:33N 47°40' W 122°23'0 0.0
2016-May-08 08:33N 47°40' W 122°23'0 0.0
2016-May-08 07:33N 47°40' W 122°23'0 0.0
2016-May-08 06:33N 47°40' W 122°23'0 0.0
2016-May-08 05:33N 47°40' W 122°23'0 0.0
2016-May-08 04:33N 47°40' W 122°23'0 0.0
2016-May-08 03:33N 47°40' W 122°23'0 0.0
2016-May-08 02:33N 47°40' W 122°23'0 0.0
2016-May-08 01:33N 47°40' W 122°23'0 0.0
2016-May-08 00:33N 47°40' W 122°23'0 0.0
2016-May-07 23:33N 47°40' W 122°23'1 0.8
2016-May-07 22:33N 47°40' W 122°24'7 7.0
2016-May-07 21:33N 47°47' W 122°27'8 7.8
2016-May-07 20:33N 47°54' W 122°30'14 6.7
2016-May-07 18:31N 48°06' W 122°40'4 4.0
2016-May-07 17:29N 48°09' W 122°44'3 2.9
2016-May-07 16:25N 48°12' W 122°46'6 6.6
2016-May-07 15:29N 48°18' W 122°47'9 9.2
2016-May-07 14:30N 48°27' W 122°44'5 5.5
2016-May-07 13:33N 48°31' W 122°39'  
Track history (hours):
 
Tides and Currents Weather Stations Pressure Air Temp Water Temp Dewpoint Dewpoint Depression Visibility Wind Speed Wind Dir Waves Ship Positions

Dorothea

Owner: Dorothea Corp., Seattle, WA. More information available from US FCC via Universal Licensing System and Coast Guard Vessel Documentation Center.

Last reported at 2016-May-11 17:34 UTC. Time now 2016-Sep-26 03:42 UTC.
Position N 47°40' W 122°23'.
Warning: this ship's position is months out of date.

Date/timePositionNaut miles runAvg speedWind from/ knotsBaromVisibWave heightAir tempDewpointWater temp
2016-May-11 17:34N 47°40' W 122°23'0 0.0
2016-May-09 14:05N 47°40' W 122°23'0 0.0
2016-May-09 13:33N 47°40' W 122°23'0 0.0
2016-May-09 12:33N 47°40' W 122°23'0 0.0
2016-May-09 11:33N 47°40' W 122°23'0 0.0
2016-May-09 10:33N 47°40' W 122°23'0 0.0
2016-May-09 09:33N 47°40' W 122°23'0 0.0
2016-May-09 08:33N 47°40' W 122°23'0 0.0
2016-May-09 07:33N 47°40' W 122°23'0 0.0
2016-May-09 06:33N 47°40' W 122°23'0 0.0
2016-May-09 05:33N 47°40' W 122°23'0 0.0
2016-May-09 04:33N 47°40' W 122°23'0 0.0
2016-May-09 03:34N 47°40' W 122°23'0 0.0
2016-May-09 02:33N 47°40' W 122°23'0 0.0
2016-May-09 01:33N 47°40' W 122°23'0 0.0
2016-May-09 00:33N 47°40' W 122°23'0 0.0
2016-May-08 23:33N 47°40' W 122°23'0 0.0
2016-May-08 22:33N 47°40' W 122°23'0 0.0
2016-May-08 21:33N 47°40' W 122°23'0 0.0
2016-May-08 20:33N 47°40' W 122°23'0 0.0
2016-May-08 19:33N 47°40' W 122°23'0 0.0
2016-May-08 18:33N 47°40' W 122°23'0 0.0
2016-May-08 17:33N 47°40' W 122°23'0 0.0
2016-May-08 16:33N 47°40' W 122°23'0 0.0
2016-May-08 15:33N 47°40' W 122°23'0 0.0
2016-May-08 14:33N 47°40' W 122°23'0 0.0
2016-May-08 13:33N 47°40' W 122°23'0 0.0
2016-May-08 12:33N 47°40' W 122°23'0 0.0
2016-May-08 11:33N 47°40' W 122°23'0 0.0
2016-May-08 10:33N 47°40' W 122°23'0 0.0
2016-May-08 09:33N 47°40' W 122°23'0 0.0
2016-May-08 08:33N 47°40' W 122°23'0 0.0
2016-May-08 07:33N 47°40' W 122°23'0 0.0
2016-May-08 06:33N 47°40' W 122°23'0 0.0
2016-May-08 05:33N 47°40' W 122°23'0 0.0
2016-May-08 04:33N 47°40' W 122°23'0 0.0
2016-May-08 03:33N 47°40' W 122°23'0 0.0
2016-May-08 02:33N 47°40' W 122°23'0 0.0
2016-May-08 01:33N 47°40' W 122°23'0 0.0
2016-May-08 00:33N 47°40' W 122°23'0 0.0
2016-May-07 23:33N 47°40' W 122°23'1 0.8
2016-May-07 22:33N 47°40' W 122°24'7 7.0
2016-May-07 21:33N 47°47' W 122°27'8 7.8
2016-May-07 20:33N 47°54' W 122°30'14 6.7
2016-May-07 18:31N 48°06' W 122°40'4 4.0
2016-May-07 17:29N 48°09' W 122°44'3 2.9
2016-May-07 16:25N 48°12' W 122°46'6 6.6
2016-May-07 15:29N 48°18' W 122°47'9 9.2
2016-May-07 14:30N 48°27' W 122°44'5 5.5
2016-May-07 13:33N 48°31' W 122°39'  

Dump ship's entire track history